sensor_id;sensor_type;location;lat;lon;timestamp;P1;durP1;ratioP1;P2;durP2;ratioP2
65393;SDS011;52002;49.760;6.512;2022-07-29T00:00:56;0.00;;;0.00;;
65393;SDS011;52002;49.760;6.512;2022-07-29T00:03:22;0.00;;;0.00;;
65393;SDS011;52002;49.760;6.512;2022-07-29T00:05:48;0.00;;;0.00;;
65393;SDS011;52002;49.760;6.512;2022-07-29T00:08:14;0.00;;;0.00;;
65393;SDS011;52002;49.760;6.512;2022-07-29T00:10:40;0.00;;;0.00;;
65393;SDS011;52002;49.760;6.512;2022-07-29T00:13:07;0.00;;;0.00;;
65393;SDS011;52002;49.760;6.512;2022-07-29T00:15:33;0.00;;;0.00;;
65393;SDS011;52002;49.760;6.512;2022-07-29T00:17:59;0.03;;;0.03;;
65393;SDS011;52002;49.760;6.512;2022-07-29T00:20:25;0.08;;;0.08;;
65393;SDS011;52002;49.760;6.512;2022-07-29T00:22:50;0.08;;;0.08;;
65393;SDS011;52002;49.760;6.512;2022-07-29T00:25:17;0.00;;;0.00;;
65393;SDS011;52002;49.760;6.512;2022-07-29T00:27:42;0.10;;;0.10;;
65393;SDS011;52002;49.760;6.512;2022-07-29T00:30:09;0.00;;;0.00;;
65393;SDS011;52002;49.760;6.512;2022-07-29T00:32:35;0.00;;;0.00;;
65393;SDS011;52002;49.760;6.512;2022-07-29T00:35:01;0.00;;;0.00;;
65393;SDS011;52002;49.760;6.512;2022-07-29T00:37:45;0.15;;;0.08;;
65393;SDS011;52002;49.760;6.512;2022-07-29T00:40:11;0.10;;;0.10;;
65393;SDS011;52002;49.760;6.512;2022-07-29T00:42:49;0.00;;;0.00;;
65393;SDS011;52002;49.760;6.512;2022-07-29T00:45:14;0.00;;;0.00;;
65393;SDS011;52002;49.760;6.512;2022-07-29T00:47:41;0.00;;;0.00;;
65393;SDS011;52002;49.760;6.512;2022-07-29T00:50:07;0.00;;;0.00;;
65393;SDS011;52002;49.760;6.512;2022-07-29T00:52:35;0.00;;;0.00;;
65393;SDS011;52002;49.760;6.512;2022-07-29T00:55:04;0.00;;;0.00;;
65393;SDS011;52002;49.760;6.512;2022-07-29T00:57:33;0.10;;;0.10;;
65393;SDS011;52002;49.760;6.512;2022-07-29T01:00:01;0.00;;;0.00;;
65393;SDS011;52002;49.760;6.512;2022-07-29T01:02:31;0.00;;;0.00;;
65393;SDS011;52002;49.760;6.512;2022-07-29T01:04:56;0.08;;;0.08;;
65393;SDS011;52002;49.760;6.512;2022-07-29T01:07:23;0.00;;;0.00;;
65393;SDS011;52002;49.760;6.512;2022-07-29T01:09:51;0.08;;;0.08;;
65393;SDS011;52002;49.760;6.512;2022-07-29T01:12:19;0.00;;;0.00;;
65393;SDS011;52002;49.760;6.512;2022-07-29T01:14:51;0.00;;;0.00;;
65393;SDS011;52002;49.760;6.512;2022-07-29T01:17:21;1.37;;;0.20;;
65393;SDS011;52002;49.760;6.512;2022-07-29T01:23:28;0.00;;;0.00;;
65393;SDS011;52002;49.760;6.512;2022-07-29T01:33:41;0.10;;;0.10;;
65393;SDS011;52002;49.760;6.512;2022-07-29T01:36:14;0.00;;;0.00;;
65393;SDS011;52002;49.760;6.512;2022-07-29T01:39:12;0.00;;;0.00;;
65393;SDS011;52002;49.760;6.512;2022-07-29T01:42:02;0.00;;;0.00;;
65393;SDS011;52002;49.760;6.512;2022-07-29T01:44:41;0.00;;;0.00;;
65393;SDS011;52002;49.760;6.512;2022-07-29T01:47:23;0.00;;;0.00;;
65393;SDS011;52002;49.760;6.512;2022-07-29T01:49:54;0.00;;;0.00;;
65393;SDS011;52002;49.760;6.512;2022-07-29T01:52:26;0.00;;;0.00;;
65393;SDS011;52002;49.760;6.512;2022-07-29T01:54:55;0.00;;;0.00;;
65393;SDS011;52002;49.760;6.512;2022-07-29T01:57:26;0.00;;;0.00;;
65393;SDS011;52002;49.760;6.512;2022-07-29T01:59:54;0.00;;;0.00;;
65393;SDS011;52002;49.760;6.512;2022-07-29T02:02:22;0.00;;;0.00;;
65393;SDS011;52002;49.760;6.512;2022-07-29T02:04:50;0.03;;;0.03;;
65393;SDS011;52002;49.760;6.512;2022-07-29T02:07:18;0.10;;;0.10;;
65393;SDS011;52002;49.760;6.512;2022-07-29T02:09:47;0.00;;;0.00;;
65393;SDS011;52002;49.760;6.512;2022-07-29T02:12:14;0.00;;;0.00;;
65393;SDS011;52002;49.760;6.512;2022-07-29T02:14:50;0.10;;;0.10;;
65393;SDS011;52002;49.760;6.512;2022-07-29T02:17:27;0.00;;;0.00;;
65393;SDS011;52002;49.760;6.512;2022-07-29T02:19:56;0.00;;;0.00;;
65393;SDS011;52002;49.760;6.512;2022-07-29T02:22:26;0.03;;;0.03;;
65393;SDS011;52002;49.760;6.512;2022-07-29T02:24:55;0.00;;;0.00;;
65393;SDS011;52002;49.760;6.512;2022-07-29T02:27:24;0.00;;;0.00;;
65393;SDS011;52002;49.760;6.512;2022-07-29T02:29:52;0.00;;;0.00;;
65393;SDS011;52002;49.760;6.512;2022-07-29T02:32:20;0.05;;;0.05;;
65393;SDS011;52002;49.760;6.512;2022-07-29T02:34:48;0.10;;;0.10;;
65393;SDS011;52002;49.760;6.512;2022-07-29T02:37:15;0.00;;;0.00;;
65393;SDS011;52002;49.760;6.512;2022-07-29T02:39:43;0.00;;;0.00;;
65393;SDS011;52002;49.760;6.512;2022-07-29T02:44:42;0.00;;;0.00;;
65393;SDS011;52002;49.760;6.512;2022-07-29T02:47:14;0.08;;;0.03;;
65393;SDS011;52002;49.760;6.512;2022-07-29T02:55:22;0.00;;;0.00;;
65393;SDS011;52002;49.760;6.512;2022-07-29T03:00:59;0.00;;;0.00;;
65393;SDS011;52002;49.760;6.512;2022-07-29T03:03:25;0.00;;;0.00;;
65393;SDS011;52002;49.760;6.512;2022-07-29T03:05:56;0.00;;;0.00;;
65393;SDS011;52002;49.760;6.512;2022-07-29T03:08:25;0.00;;;0.00;;
65393;SDS011;52002;49.760;6.512;2022-07-29T03:10:52;0.00;;;0.00;;
65393;SDS011;52002;49.760;6.512;2022-07-29T03:13:19;0.00;;;0.00;;
65393;SDS011;52002;49.760;6.512;2022-07-29T03:15:46;0.00;;;0.00;;
65393;SDS011;52002;49.760;6.512;2022-07-29T03:18:12;0.10;;;0.10;;
65393;SDS011;52002;49.760;6.512;2022-07-29T03:20:39;0.05;;;0.05;;
65393;SDS011;52002;49.760;6.512;2022-07-29T03:23:06;0.00;;;0.00;;
65393;SDS011;52002;49.760;6.512;2022-07-29T03:25:33;0.00;;;0.00;;
65393;SDS011;52002;49.760;6.512;2022-07-29T03:27:59;0.00;;;0.00;;
65393;SDS011;52002;49.760;6.512;2022-07-29T03:30:25;0.00;;;0.00;;
65393;SDS011;52002;49.760;6.512;2022-07-29T03:32:52;0.00;;;0.00;;
65393;SDS011;52002;49.760;6.512;2022-07-29T03:35:19;0.00;;;0.00;;
65393;SDS011;52002;49.760;6.512;2022-07-29T03:37:45;0.08;;;0.08;;
65393;SDS011;52002;49.760;6.512;2022-07-29T03:40:13;0.00;;;0.00;;
65393;SDS011;52002;49.760;6.512;2022-07-29T03:42:48;0.00;;;0.00;;
65393;SDS011;52002;49.760;6.512;2022-07-29T03:45:17;0.10;;;0.10;;
65393;SDS011;52002;49.760;6.512;2022-07-29T03:47:45;0.10;;;0.10;;
65393;SDS011;52002;49.760;6.512;2022-07-29T03:50:16;0.00;;;0.00;;
65393;SDS011;52002;49.760;6.512;2022-07-29T03:52:44;0.10;;;0.10;;
65393;SDS011;52002;49.760;6.512;2022-07-29T03:55:11;0.00;;;0.00;;
65393;SDS011;52002;49.760;6.512;2022-07-29T03:57:37;0.00;;;0.00;;
65393;SDS011;52002;49.760;6.512;2022-07-29T04:00:05;0.00;;;0.00;;
65393;SDS011;52002;49.760;6.512;2022-07-29T04:02:32;0.00;;;0.00;;
65393;SDS011;52002;49.760;6.512;2022-07-29T04:04:59;0.00;;;0.00;;
65393;SDS011;52002;49.760;6.512;2022-07-29T04:07:25;0.00;;;0.00;;
65393;SDS011;52002;49.760;6.512;2022-07-29T04:09:51;0.00;;;0.00;;
65393;SDS011;52002;49.760;6.512;2022-07-29T04:12:17;0.00;;;0.00;;
65393;SDS011;52002;49.760;6.512;2022-07-29T04:14:43;0.00;;;0.00;;
65393;SDS011;52002;49.760;6.512;2022-07-29T04:17:09;0.00;;;0.00;;
65393;SDS011;52002;49.760;6.512;2022-07-29T04:19:35;0.00;;;0.00;;
65393;SDS011;52002;49.760;6.512;2022-07-29T04:22:01;0.00;;;0.00;;
65393;SDS011;52002;49.760;6.512;2022-07-29T04:24:27;0.10;;;0.10;;
65393;SDS011;52002;49.760;6.512;2022-07-29T04:26:53;0.00;;;0.00;;
65393;SDS011;52002;49.760;6.512;2022-07-29T04:29:19;0.00;;;0.00;;
65393;SDS011;52002;49.760;6.512;2022-07-29T04:31:45;0.00;;;0.00;;
65393;SDS011;52002;49.760;6.512;2022-07-29T04:34:11;0.00;;;0.00;;
65393;SDS011;52002;49.760;6.512;2022-07-29T04:36:38;0.00;;;0.00;;
65393;SDS011;52002;49.760;6.512;2022-07-29T04:39:04;0.00;;;0.00;;
65393;SDS011;52002;49.760;6.512;2022-07-29T04:41:30;0.00;;;0.00;;
65393;SDS011;52002;49.760;6.512;2022-07-29T04:43:56;0.00;;;0.00;;
65393;SDS011;52002;49.760;6.512;2022-07-29T04:46:22;0.00;;;0.00;;
65393;SDS011;52002;49.760;6.512;2022-07-29T04:48:48;0.10;;;0.10;;
65393;SDS011;52002;49.760;6.512;2022-07-29T04:51:14;0.00;;;0.00;;
65393;SDS011;52002;49.760;6.512;2022-07-29T04:53:41;0.00;;;0.00;;
65393;SDS011;52002;49.760;6.512;2022-07-29T04:56:06;0.00;;;0.00;;
65393;SDS011;52002;49.760;6.512;2022-07-29T04:58:35;0.10;;;0.10;;
65393;SDS011;52002;49.760;6.512;2022-07-29T05:01:03;0.00;;;0.00;;
65393;SDS011;52002;49.760;6.512;2022-07-29T05:03:29;0.10;;;0.10;;
65393;SDS011;52002;49.760;6.512;2022-07-29T05:05:55;0.00;;;0.00;;
65393;SDS011;52002;49.760;6.512;2022-07-29T05:08:21;0.00;;;0.00;;
65393;SDS011;52002;49.760;6.512;2022-07-29T05:10:47;0.10;;;0.10;;
65393;SDS011;52002;49.760;6.512;2022-07-29T05:13:13;0.00;;;0.00;;
65393;SDS011;52002;49.760;6.512;2022-07-29T05:15:39;0.10;;;0.10;;
65393;SDS011;52002;49.760;6.512;2022-07-29T05:18:04;0.00;;;0.00;;
65393;SDS011;52002;49.760;6.512;2022-07-29T05:20:31;0.10;;;0.10;;
65393;SDS011;52002;49.760;6.512;2022-07-29T05:22:59;0.00;;;0.00;;
65393;SDS011;52002;49.760;6.512;2022-07-29T05:25:27;0.08;;;0.08;;
65393;SDS011;52002;49.760;6.512;2022-07-29T05:27:54;0.10;;;0.10;;
65393;SDS011;52002;49.760;6.512;2022-07-29T05:30:21;0.10;;;0.10;;
65393;SDS011;52002;49.760;6.512;2022-07-29T05:32:47;0.00;;;0.00;;
65393;SDS011;52002;49.760;6.512;2022-07-29T05:35:13;0.10;;;0.10;;
65393;SDS011;52002;49.760;6.512;2022-07-29T05:37:40;0.00;;;0.00;;
65393;SDS011;52002;49.760;6.512;2022-07-29T05:40:07;0.05;;;0.05;;
65393;SDS011;52002;49.760;6.512;2022-07-29T05:42:34;0.00;;;0.00;;
65393;SDS011;52002;49.760;6.512;2022-07-29T05:45:01;0.00;;;0.00;;
65393;SDS011;52002;49.760;6.512;2022-07-29T05:47:28;0.10;;;0.10;;
65393;SDS011;52002;49.760;6.512;2022-07-29T05:49:53;0.20;;;0.00;;
65393;SDS011;52002;49.760;6.512;2022-07-29T05:52:20;0.10;;;0.10;;
65393;SDS011;52002;49.760;6.512;2022-07-29T05:54:46;0.10;;;0.10;;
65393;SDS011;52002;49.760;6.512;2022-07-29T05:57:19;0.00;;;0.00;;
65393;SDS011;52002;49.760;6.512;2022-07-29T05:59:48;0.10;;;0.10;;
65393;SDS011;52002;49.760;6.512;2022-07-29T06:02:15;0.10;;;0.10;;
65393;SDS011;52002;49.760;6.512;2022-07-29T06:04:42;0.23;;;0.03;;
65393;SDS011;52002;49.760;6.512;2022-07-29T06:07:09;0.00;;;0.00;;
65393;SDS011;52002;49.760;6.512;2022-07-29T06:09:36;0.00;;;0.00;;
65393;SDS011;52002;49.760;6.512;2022-07-29T06:12:02;0.10;;;0.10;;
65393;SDS011;52002;49.760;6.512;2022-07-29T06:14:29;0.10;;;0.10;;
65393;SDS011;52002;49.760;6.512;2022-07-29T06:16:55;0.00;;;0.00;;
65393;SDS011;52002;49.760;6.512;2022-07-29T06:19:21;0.00;;;0.00;;
65393;SDS011;52002;49.760;6.512;2022-07-29T06:21:47;0.00;;;0.00;;
65393;SDS011;52002;49.760;6.512;2022-07-29T06:24:13;0.00;;;0.00;;
65393;SDS011;52002;49.760;6.512;2022-07-29T06:26:40;0.00;;;0.00;;
65393;SDS011;52002;49.760;6.512;2022-07-29T06:29:08;0.00;;;0.00;;
65393;SDS011;52002;49.760;6.512;2022-07-29T06:31:39;0.00;;;0.00;;
65393;SDS011;52002;49.760;6.512;2022-07-29T06:34:05;0.03;;;0.03;;
65393;SDS011;52002;49.760;6.512;2022-07-29T06:36:34;0.10;;;0.10;;
65393;SDS011;52002;49.760;6.512;2022-07-29T06:39:03;0.00;;;0.00;;
65393;SDS011;52002;49.760;6.512;2022-07-29T06:41:31;0.00;;;0.00;;
65393;SDS011;52002;49.760;6.512;2022-07-29T06:43:57;0.00;;;0.00;;
65393;SDS011;52002;49.760;6.512;2022-07-29T06:46:23;0.00;;;0.00;;
65393;SDS011;52002;49.760;6.512;2022-07-29T06:48:49;0.17;;;0.10;;
65393;SDS011;52002;49.760;6.512;2022-07-29T06:51:16;0.00;;;0.00;;
65393;SDS011;52002;49.760;6.512;2022-07-29T06:53:42;0.03;;;0.03;;
65393;SDS011;52002;49.760;6.512;2022-07-29T06:56:08;0.00;;;0.00;;
65393;SDS011;52002;49.760;6.512;2022-07-29T06:58:34;0.00;;;0.00;;
65393;SDS011;52002;49.760;6.512;2022-07-29T07:01:02;0.00;;;0.00;;
65393;SDS011;52002;49.760;6.512;2022-07-29T07:03:30;0.00;;;0.00;;
65393;SDS011;52002;49.760;6.512;2022-07-29T07:05:56;0.00;;;0.00;;
65393;SDS011;52002;49.760;6.512;2022-07-29T07:08:23;0.05;;;0.05;;
65393;SDS011;52002;49.760;6.512;2022-07-29T07:10:49;0.10;;;0.10;;
65393;SDS011;52002;49.760;6.512;2022-07-29T07:13:16;0.10;;;0.10;;
65393;SDS011;52002;49.760;6.512;2022-07-29T07:15:43;0.00;;;0.00;;
65393;SDS011;52002;49.760;6.512;2022-07-29T07:18:10;0.00;;;0.00;;
65393;SDS011;52002;49.760;6.512;2022-07-29T07:20:36;0.00;;;0.00;;
65393;SDS011;52002;49.760;6.512;2022-07-29T07:23:02;0.00;;;0.00;;
65393;SDS011;52002;49.760;6.512;2022-07-29T07:25:28;0.00;;;0.00;;
65393;SDS011;52002;49.760;6.512;2022-07-29T07:27:54;0.00;;;0.00;;
65393;SDS011;52002;49.760;6.512;2022-07-29T07:30:20;0.00;;;0.00;;
65393;SDS011;52002;49.760;6.512;2022-07-29T07:32:46;0.10;;;0.10;;
65393;SDS011;52002;49.760;6.512;2022-07-29T07:35:12;0.00;;;0.00;;
65393;SDS011;52002;49.760;6.512;2022-07-29T07:37:39;0.00;;;0.00;;
65393;SDS011;52002;49.760;6.512;2022-07-29T07:40:08;0.00;;;0.00;;
65393;SDS011;52002;49.760;6.512;2022-07-29T07:42:39;0.00;;;0.00;;
65393;SDS011;52002;49.760;6.512;2022-07-29T07:45:07;0.00;;;0.00;;
65393;SDS011;52002;49.760;6.512;2022-07-29T07:47:36;0.00;;;0.00;;
65393;SDS011;52002;49.760;6.512;2022-07-29T07:50:07;0.00;;;0.00;;
65393;SDS011;52002;49.760;6.512;2022-07-29T07:52:37;0.08;;;0.08;;
65393;SDS011;52002;49.760;6.512;2022-07-29T07:55:14;0.00;;;0.00;;
65393;SDS011;52002;49.760;6.512;2022-07-29T07:57:40;0.00;;;0.00;;
65393;SDS011;52002;49.760;6.512;2022-07-29T08:00:06;0.10;;;0.10;;
65393;SDS011;52002;49.760;6.512;2022-07-29T08:02:33;0.10;;;0.10;;
65393;SDS011;52002;49.760;6.512;2022-07-29T08:04:59;0.10;;;0.10;;
65393;SDS011;52002;49.760;6.512;2022-07-29T08:07:25;0.10;;;0.10;;
65393;SDS011;52002;49.760;6.512;2022-07-29T08:09:51;0.08;;;0.08;;
65393;SDS011;52002;49.760;6.512;2022-07-29T08:12:17;0.10;;;0.10;;
65393;SDS011;52002;49.760;6.512;2022-07-29T08:14:42;0.00;;;0.00;;
65393;SDS011;52002;49.760;6.512;2022-07-29T08:17:08;0.05;;;0.05;;
65393;SDS011;52002;49.760;6.512;2022-07-29T08:19:34;0.10;;;0.10;;
65393;SDS011;52002;49.760;6.512;2022-07-29T08:22:01;0.00;;;0.00;;
65393;SDS011;52002;49.760;6.512;2022-07-29T08:24:27;0.03;;;0.03;;
65393;SDS011;52002;49.760;6.512;2022-07-29T08:27:13;0.10;;;0.10;;
65393;SDS011;52002;49.760;6.512;2022-07-29T08:29:37;0.05;;;0.05;;
65393;SDS011;52002;49.760;6.512;2022-07-29T08:32:03;0.00;;;0.00;;
65393;SDS011;52002;49.760;6.512;2022-07-29T08:34:29;0.00;;;0.00;;
65393;SDS011;52002;49.760;6.512;2022-07-29T08:36:55;0.00;;;0.00;;
65393;SDS011;52002;49.760;6.512;2022-07-29T08:39:22;0.00;;;0.00;;
65393;SDS011;52002;49.760;6.512;2022-07-29T08:41:50;0.00;;;0.00;;
65393;SDS011;52002;49.760;6.512;2022-07-29T08:44:21;0.00;;;0.00;;
65393;SDS011;52002;49.760;6.512;2022-07-29T08:46:46;0.00;;;0.00;;
65393;SDS011;52002;49.760;6.512;2022-07-29T08:49:14;0.15;;;0.15;;
65393;SDS011;52002;49.760;6.512;2022-07-29T08:51:41;0.00;;;0.00;;
65393;SDS011;52002;49.760;6.512;2022-07-29T08:54:09;0.10;;;0.10;;
65393;SDS011;52002;49.760;6.512;2022-07-29T08:56:35;0.00;;;0.00;;
65393;SDS011;52002;49.760;6.512;2022-07-29T08:59:04;0.00;;;0.00;;
65393;SDS011;52002;49.760;6.512;2022-07-29T09:04:03;0.08;;;0.08;;
65393;SDS011;52002;49.760;6.512;2022-07-29T09:06:34;0.08;;;0.08;;
65393;SDS011;52002;49.760;6.512;2022-07-29T09:09:04;0.10;;;0.10;;
65393;SDS011;52002;49.760;6.512;2022-07-29T09:11:34;0.40;;;0.08;;
65393;SDS011;52002;49.760;6.512;2022-07-29T09:14:00;0.10;;;0.10;;
65393;SDS011;52002;49.760;6.512;2022-07-29T09:16:39;0.00;;;0.00;;
65393;SDS011;52002;49.760;6.512;2022-07-29T09:19:27;0.10;;;0.10;;
65393;SDS011;52002;49.760;6.512;2022-07-29T09:21:53;0.10;;;0.10;;
65393;SDS011;52002;49.760;6.512;2022-07-29T09:24:23;0.00;;;0.00;;
65393;SDS011;52002;49.760;6.512;2022-07-29T09:26:51;0.00;;;0.00;;
65393;SDS011;52002;49.760;6.512;2022-07-29T09:29:18;0.00;;;0.00;;
65393;SDS011;52002;49.760;6.512;2022-07-29T09:31:48;0.00;;;0.00;;
65393;SDS011;52002;49.760;6.512;2022-07-29T09:34:21;0.00;;;0.00;;
65393;SDS011;52002;49.760;6.512;2022-07-29T09:36:51;0.10;;;0.10;;
65393;SDS011;52002;49.760;6.512;2022-07-29T09:42:03;0.10;;;0.10;;
65393;SDS011;52002;49.760;6.512;2022-07-29T09:44:41;0.03;;;0.03;;
65393;SDS011;52002;49.760;6.512;2022-07-29T09:47:13;0.00;;;0.00;;
65393;SDS011;52002;49.760;6.512;2022-07-29T09:49:55;0.00;;;0.00;;
65393;SDS011;52002;49.760;6.512;2022-07-29T09:52:22;0.00;;;0.00;;
65393;SDS011;52002;49.760;6.512;2022-07-29T09:54:49;0.00;;;0.00;;
65393;SDS011;52002;49.760;6.512;2022-07-29T09:57:25;0.00;;;0.00;;
65393;SDS011;52002;49.760;6.512;2022-07-29T09:59:59;0.00;;;0.00;;
65393;SDS011;52002;49.760;6.512;2022-07-29T10:02:36;0.10;;;0.10;;
65393;SDS011;52002;49.760;6.512;2022-07-29T10:05:21;0.00;;;0.00;;
65393;SDS011;52002;49.760;6.512;2022-07-29T10:07:51;0.10;;;0.10;;
65393;SDS011;52002;49.760;6.512;2022-07-29T10:10:24;0.10;;;0.10;;
65393;SDS011;52002;49.760;6.512;2022-07-29T10:15:28;0.00;;;0.00;;
65393;SDS011;52002;49.760;6.512;2022-07-29T10:17:57;0.03;;;0.03;;
65393;SDS011;52002;49.760;6.512;2022-07-29T10:20:26;0.00;;;0.00;;
65393;SDS011;52002;49.760;6.512;2022-07-29T10:25:20;0.00;;;0.00;;
65393;SDS011;52002;49.760;6.512;2022-07-29T10:27:48;0.00;;;0.00;;
65393;SDS011;52002;49.760;6.512;2022-07-29T10:30:16;0.00;;;0.00;;
65393;SDS011;52002;49.760;6.512;2022-07-29T10:35:48;0.00;;;0.00;;
65393;SDS011;52002;49.760;6.512;2022-07-29T10:44:06;0.08;;;0.08;;
65393;SDS011;52002;49.760;6.512;2022-07-29T10:46:36;0.00;;;0.00;;
65393;SDS011;52002;49.760;6.512;2022-07-29T10:57:18;0.00;;;0.00;;
65393;SDS011;52002;49.760;6.512;2022-07-29T10:59:50;0.00;;;0.00;;
65393;SDS011;52002;49.760;6.512;2022-07-29T11:05:11;0.00;;;0.00;;
65393;SDS011;52002;49.760;6.512;2022-07-29T11:10:44;0.00;;;0.00;;
65393;SDS011;52002;49.760;6.512;2022-07-29T11:13:10;0.00;;;0.00;;
65393;SDS011;52002;49.760;6.512;2022-07-29T11:15:52;0.00;;;0.00;;
65393;SDS011;52002;49.760;6.512;2022-07-29T11:18:20;0.10;;;0.05;;
65393;SDS011;52002;49.760;6.512;2022-07-29T11:20:51;0.00;;;0.00;;
65393;SDS011;52002;49.760;6.512;2022-07-29T11:23:31;0.00;;;0.00;;
65393;SDS011;52002;49.760;6.512;2022-07-29T11:28:53;0.10;;;0.10;;
65393;SDS011;52002;49.760;6.512;2022-07-29T11:31:48;0.10;;;0.10;;
65393;SDS011;52002;49.760;6.512;2022-07-29T11:37:37;0.00;;;0.00;;
65393;SDS011;52002;49.760;6.512;2022-07-29T11:39:35;0.00;;;0.00;;
65393;SDS011;52002;49.760;6.512;2022-07-29T11:45:03;0.00;;;0.00;;
65393;SDS011;52002;49.760;6.512;2022-07-29T11:50:17;0.00;;;0.00;;
65393;SDS011;52002;49.760;6.512;2022-07-29T11:52:56;0.00;;;0.00;;
65393;SDS011;52002;49.760;6.512;2022-07-29T11:55:22;0.00;;;0.00;;
65393;SDS011;52002;49.760;6.512;2022-07-29T12:00:26;0.00;;;0.00;;
65393;SDS011;52002;49.760;6.512;2022-07-29T12:03:03;0.00;;;0.00;;
65393;SDS011;52002;49.760;6.512;2022-07-29T12:05:42;0.20;;;0.10;;
65393;SDS011;52002;49.760;6.512;2022-07-29T12:08:11;0.00;;;0.00;;
65393;SDS011;52002;49.760;6.512;2022-07-29T12:10:41;0.00;;;0.00;;
65393;SDS011;52002;49.760;6.512;2022-07-29T12:13:08;0.00;;;0.00;;
65393;SDS011;52002;49.760;6.512;2022-07-29T12:15:35;0.00;;;0.00;;
65393;SDS011;52002;49.760;6.512;2022-07-29T12:18:16;0.00;;;0.00;;
65393;SDS011;52002;49.760;6.512;2022-07-29T12:20:41;0.00;;;0.00;;
65393;SDS011;52002;49.760;6.512;2022-07-29T12:23:07;0.00;;;0.00;;
65393;SDS011;52002;49.760;6.512;2022-07-29T12:25:34;0.00;;;0.00;;
65393;SDS011;52002;49.760;6.512;2022-07-29T12:28:04;0.00;;;0.00;;
65393;SDS011;52002;49.760;6.512;2022-07-29T12:30:36;0.00;;;0.00;;
65393;SDS011;52002;49.760;6.512;2022-07-29T12:33:12;0.00;;;0.00;;
65393;SDS011;52002;49.760;6.512;2022-07-29T12:35:44;0.00;;;0.00;;
65393;SDS011;52002;49.760;6.512;2022-07-29T12:38:14;0.00;;;0.00;;
65393;SDS011;52002;49.760;6.512;2022-07-29T12:40:42;0.00;;;0.00;;
65393;SDS011;52002;49.760;6.512;2022-07-29T12:43:11;0.00;;;0.00;;
65393;SDS011;52002;49.760;6.512;2022-07-29T12:45:42;0.10;;;0.10;;
65393;SDS011;52002;49.760;6.512;2022-07-29T12:48:12;0.00;;;0.00;;
65393;SDS011;52002;49.760;6.512;2022-07-29T12:53:26;0.00;;;0.00;;
65393;SDS011;52002;49.760;6.512;2022-07-29T12:55:53;0.00;;;0.00;;
65393;SDS011;52002;49.760;6.512;2022-07-29T13:01:03;0.00;;;0.00;;
65393;SDS011;52002;49.760;6.512;2022-07-29T13:14:38;0.00;;;0.00;;
65393;SDS011;52002;49.760;6.512;2022-07-29T13:22:21;0.00;;;0.00;;
65393;SDS011;52002;49.760;6.512;2022-07-29T13:24:59;0.00;;;0.00;;
65393;SDS011;52002;49.760;6.512;2022-07-29T13:27:31;0.00;;;0.00;;
65393;SDS011;52002;49.760;6.512;2022-07-29T13:30:03;0.00;;;0.00;;
65393;SDS011;52002;49.760;6.512;2022-07-29T13:32:31;0.00;;;0.00;;
65393;SDS011;52002;49.760;6.512;2022-07-29T13:35:06;0.08;;;0.08;;
65393;SDS011;52002;49.760;6.512;2022-07-29T13:37:32;0.10;;;0.10;;
65393;SDS011;52002;49.760;6.512;2022-07-29T13:40:00;0.00;;;0.00;;
65393;SDS011;52002;49.760;6.512;2022-07-29T13:44:54;0.00;;;0.00;;
65393;SDS011;52002;49.760;6.512;2022-07-29T13:47:20;0.00;;;0.00;;
65393;SDS011;52002;49.760;6.512;2022-07-29T13:49:47;0.00;;;0.00;;
65393;SDS011;52002;49.760;6.512;2022-07-29T13:52:13;0.10;;;0.10;;
65393;SDS011;52002;49.760;6.512;2022-07-29T13:54:40;0.00;;;0.00;;
65393;SDS011;52002;49.760;6.512;2022-07-29T13:57:08;0.10;;;0.10;;
65393;SDS011;52002;49.760;6.512;2022-07-29T13:59:35;0.00;;;0.00;;
65393;SDS011;52002;49.760;6.512;2022-07-29T14:02:01;0.00;;;0.00;;
65393;SDS011;52002;49.760;6.512;2022-07-29T14:04:28;0.00;;;0.00;;
65393;SDS011;52002;49.760;6.512;2022-07-29T14:06:54;0.10;;;0.10;;
65393;SDS011;52002;49.760;6.512;2022-07-29T14:09:20;0.10;;;0.10;;
65393;SDS011;52002;49.760;6.512;2022-07-29T14:11:46;0.10;;;0.10;;
65393;SDS011;52002;49.760;6.512;2022-07-29T14:14:13;0.20;;;0.20;;
65393;SDS011;52002;49.760;6.512;2022-07-29T14:16:39;0.10;;;0.10;;
65393;SDS011;52002;49.760;6.512;2022-07-29T14:19:05;0.10;;;0.10;;
65393;SDS011;52002;49.760;6.512;2022-07-29T14:21:32;0.10;;;0.10;;
65393;SDS011;52002;49.760;6.512;2022-07-29T14:23:58;0.20;;;0.20;;
65393;SDS011;52002;49.760;6.512;2022-07-29T14:26:24;0.20;;;0.20;;
65393;SDS011;52002;49.760;6.512;2022-07-29T14:28:50;0.30;;;0.30;;
65393;SDS011;52002;49.760;6.512;2022-07-29T14:33:42;0.60;;;0.60;;
65393;SDS011;52002;49.760;6.512;2022-07-29T14:36:08;0.90;;;0.90;;
65393;SDS011;52002;49.760;6.512;2022-07-29T14:38:36;0.70;;;0.70;;
65393;SDS011;52002;49.760;6.512;2022-07-29T14:41:02;0.40;;;0.40;;
65393;SDS011;52002;49.760;6.512;2022-07-29T14:43:28;0.20;;;0.20;;
65393;SDS011;52002;49.760;6.512;2022-07-29T14:45:55;0.10;;;0.10;;
65393;SDS011;52002;49.760;6.512;2022-07-29T14:48:21;0.10;;;0.10;;
65393;SDS011;52002;49.760;6.512;2022-07-29T14:50:47;0.10;;;0.10;;
65393;SDS011;52002;49.760;6.512;2022-07-29T14:53:13;0.10;;;0.10;;
65393;SDS011;52002;49.760;6.512;2022-07-29T14:55:39;0.00;;;0.00;;
65393;SDS011;52002;49.760;6.512;2022-07-29T14:58:06;0.10;;;0.10;;
65393;SDS011;52002;49.760;6.512;2022-07-29T15:00:33;0.00;;;0.00;;
65393;SDS011;52002;49.760;6.512;2022-07-29T15:02:59;0.00;;;0.00;;
65393;SDS011;52002;49.760;6.512;2022-07-29T15:05:26;0.05;;;0.05;;
65393;SDS011;52002;49.760;6.512;2022-07-29T15:07:52;0.00;;;0.00;;
65393;SDS011;52002;49.760;6.512;2022-07-29T15:10:18;0.00;;;0.00;;
65393;SDS011;52002;49.760;6.512;2022-07-29T15:12:44;0.10;;;0.10;;
65393;SDS011;52002;49.760;6.512;2022-07-29T15:15:10;0.00;;;0.00;;
65393;SDS011;52002;49.760;6.512;2022-07-29T15:17:36;0.00;;;0.00;;
65393;SDS011;52002;49.760;6.512;2022-07-29T15:20:02;0.00;;;0.00;;
65393;SDS011;52002;49.760;6.512;2022-07-29T15:22:30;0.00;;;0.00;;
65393;SDS011;52002;49.760;6.512;2022-07-29T15:24:56;0.00;;;0.00;;
65393;SDS011;52002;49.760;6.512;2022-07-29T15:27:21;0.10;;;0.10;;
65393;SDS011;52002;49.760;6.512;2022-07-29T15:29:47;0.00;;;0.00;;
65393;SDS011;52002;49.760;6.512;2022-07-29T15:32:13;0.10;;;0.10;;
65393;SDS011;52002;49.760;6.512;2022-07-29T15:34:40;0.08;;;0.03;;
65393;SDS011;52002;49.760;6.512;2022-07-29T15:37:05;0.00;;;0.00;;
65393;SDS011;52002;49.760;6.512;2022-07-29T15:39:31;0.00;;;0.00;;
65393;SDS011;52002;49.760;6.512;2022-07-29T15:41:58;0.00;;;0.00;;
65393;SDS011;52002;49.760;6.512;2022-07-29T15:44:27;0.10;;;0.00;;
65393;SDS011;52002;49.760;6.512;2022-07-29T15:46:53;0.10;;;0.10;;
65393;SDS011;52002;49.760;6.512;2022-07-29T15:49:37;0.10;;;0.10;;
65393;SDS011;52002;49.760;6.512;2022-07-29T15:52:06;0.10;;;0.10;;
65393;SDS011;52002;49.760;6.512;2022-07-29T15:54:35;0.10;;;0.10;;
65393;SDS011;52002;49.760;6.512;2022-07-29T15:57:04;0.00;;;0.00;;
65393;SDS011;52002;49.760;6.512;2022-07-29T15:59:31;0.00;;;0.00;;
65393;SDS011;52002;49.760;6.512;2022-07-29T16:01:57;0.10;;;0.10;;
65393;SDS011;52002;49.760;6.512;2022-07-29T16:04:24;0.10;;;0.10;;
65393;SDS011;52002;49.760;6.512;2022-07-29T16:06:51;0.00;;;0.00;;
65393;SDS011;52002;49.760;6.512;2022-07-29T16:09:18;0.00;;;0.00;;
65393;SDS011;52002;49.760;6.512;2022-07-29T16:11:44;0.00;;;0.00;;
65393;SDS011;52002;49.760;6.512;2022-07-29T16:14:12;0.10;;;0.10;;
65393;SDS011;52002;49.760;6.512;2022-07-29T16:16:38;0.10;;;0.10;;
65393;SDS011;52002;49.760;6.512;2022-07-29T16:19:05;0.10;;;0.10;;
65393;SDS011;52002;49.760;6.512;2022-07-29T16:21:33;0.10;;;0.10;;
65393;SDS011;52002;49.760;6.512;2022-07-29T16:24:00;0.15;;;0.10;;
65393;SDS011;52002;49.760;6.512;2022-07-29T16:26:27;0.10;;;0.10;;
65393;SDS011;52002;49.760;6.512;2022-07-29T16:28:53;0.10;;;0.10;;
65393;SDS011;52002;49.760;6.512;2022-07-29T16:31:19;0.10;;;0.10;;